Time;durP1;ratioP1;P1;durP2;ratioP2;P2;SDS_P1;SDS_P2;PMS_P1;PMS_P2;Temp;Humidity;BMP_temperature;BMP_pressure;BME280_temperature;BME280_humidity;BME280_pressure;Samples;Min_cycle;Max_cycle;Signal;HPM_P1;HPM_P2
2022/01/31 00:00:50;;;;;;;17.15;11.32;;;-1.70;99.10;;;;;;5012425;28;20541;-75
2022/01/31 00:03:15;;;;;;;18.30;11.20;;;-1.70;99.40;;;;;;5012375;28;20030;-77
2022/01/31 00:05:41;;;;;;;17.63;12.10;;;-1.70;99.20;;;;;;5012555;28;20022;-77
2022/01/31 00:08:07;;;;;;;18.95;11.10;;;-1.70;99.10;;;;;;5013044;28;20029;-78
2022/01/31 00:10:33;;;;;;;21.33;11.85;;;-1.60;99.10;;;;;;5012918;28;20105;-75
2022/01/31 00:15:29;;;;;;;17.67;10.90;;;-1.60;99.10;;;;;;5017591;28;20038;-77
2022/01/31 00:17:55;;;;;;;15.23;10.30;;;-1.60;99.00;;;;;;5012654;28;20434;-75
2022/01/31 00:20:21;;;;;;;16.58;12.20;;;-1.60;99.10;;;;;;5012500;28;20030;-77
2022/01/31 00:22:47;;;;;;;19.50;12.05;;;-1.60;99.10;;;;;;5011942;28;20049;-78
2022/01/31 00:25:13;;;;;;;20.30;12.13;;;-1.60;99.10;;;;;;5012403;28;20026;-77
2022/01/31 00:27:40;;;;;;;14.52;10.13;;;-1.60;99.00;;;;;;5012133;28;20087;-76
2022/01/31 00:30:06;;;;;;;19.65;11.80;;;-1.60;99.10;;;;;;5025845;28;20053;-76
2022/01/31 00:32:32;;;;;;;17.33;11.03;;;-1.60;98.90;;;;;;5030289;28;20029;-78
2022/01/31 00:34:58;;;;;;;19.02;10.75;;;-1.60;98.90;;;;;;5012134;28;20824;-78
2022/01/31 00:37:24;;;;;;;20.02;11.95;;;-1.50;99.00;;;;;;5014586;28;20026;-77
2022/01/31 00:39:50;;;;;;;18.77;12.07;;;-1.60;99.00;;;;;;5015721;28;20036;-76
2022/01/31 00:42:16;;;;;;;21.42;12.75;;;-1.60;99.00;;;;;;5036934;28;20482;-76
2022/01/31 00:44:54;;;;;;;18.35;11.93;;;-1.60;98.90;;;;;;5036848;28;20025;-77
2022/01/31 00:47:26;;;;;;;19.08;11.45;;;-1.50;98.90;;;;;;5035931;28;20021;-77
2022/01/31 00:50:02;;;;;;;19.83;12.48;;;-1.60;99.00;;;;;;5035726;28;20141;-77
2022/01/31 00:52:28;;;;;;;20.70;13.05;;;-1.60;99.10;;;;;;5035736;28;20033;-78
2022/01/31 00:54:54;;;;;;;21.95;13.13;;;-1.60;99.10;;;;;;5035467;28;20055;-77
2022/01/31 00:57:20;;;;;;;19.35;12.02;;;-1.50;99.10;;;;;;5035618;28;20029;-76
2022/01/31 00:59:50;;;;;;;16.77;12.30;;;-1.50;99.10;;;;;;5035546;28;20018;-77
2022/01/31 01:02:19;;;;;;;20.15;12.70;;;-1.60;99.20;;;;;;5035457;28;20116;-75
2022/01/31 01:04:45;;;;;;;19.90;13.45;;;-1.60;99.30;;;;;;5035475;28;20060;-77
2022/01/31 01:07:11;;;;;;;19.45;12.05;;;-1.60;99.20;;;;;;5035326;28;20068;-75
2022/01/31 01:09:37;;;;;;;21.27;12.80;;;-1.60;99.30;;;;;;5033776;28;20033;-76
2022/01/31 01:12:04;;;;;;;18.65;13.40;;;-1.60;99.40;;;;;;5015522;28;20462;-77
2022/01/31 01:14:30;;;;;;;18.35;11.75;;;-1.60;99.40;;;;;;5015493;28;20505;-79
2022/01/31 01:16:56;;;;;;;23.90;13.32;;;-1.60;99.40;;;;;;5015364;28;20057;-77
2022/01/31 01:19:23;;;;;;;22.25;14.38;;;-1.60;99.40;;;;;;5015293;28;20022;-78
2022/01/31 01:21:48;;;;;;;23.15;13.48;;;-1.60;99.60;;;;;;5015186;28;20087;-77
2022/01/31 01:24:15;;;;;;;24.30;13.35;;;-1.60;99.30;;;;;;5014910;28;20029;-77
2022/01/31 01:26:42;;;;;;;21.77;12.60;;;-1.60;99.40;;;;;;5023276;28;20048;-76
2022/01/31 01:29:08;;;;;;;22.40;14.13;;;-1.60;99.50;;;;;;5026893;28;20048;-76
2022/01/31 01:31:34;;;;;;;24.30;13.45;;;-1.60;99.40;;;;;;5019771;28;20040;-77
2022/01/31 01:33:59;;;;;;;21.00;13.82;;;-1.60;99.30;;;;;;5035330;28;20475;-76
2022/01/31 01:36:25;;;;;;;23.60;13.85;;;-1.50;99.30;;;;;;5034934;28;20079;-77
2022/01/31 01:38:51;;;;;;;24.13;14.50;;;-1.50;99.20;;;;;;5033797;28;20083;-77
2022/01/31 01:41:17;;;;;;;20.38;11.50;;;-1.50;99.30;;;;;;5034766;28;20025;-76
2022/01/31 01:43:43;;;;;;;23.25;14.10;;;-1.50;99.30;;;;;;5034633;28;20068;-77
2022/01/31 01:46:09;;;;;;;22.85;14.27;;;-1.50;99.30;;;;;;5034629;28;20531;-76
2022/01/31 01:48:35;;;;;;;19.63;11.93;;;-1.50;99.30;;;;;;5017402;28;20026;-75
2022/01/31 01:51:01;;;;;;;24.85;13.40;;;-1.50;99.20;;;;;;5015026;28;20014;-76
2022/01/31 01:53:28;;;;;;;27.65;14.10;;;-1.50;99.30;;;;;;5014767;28;20026;-77
2022/01/31 01:55:54;;;;;;;27.88;14.98;;;-1.50;99.40;;;;;;5014059;28;20061;-76
2022/01/31 01:58:21;;;;;;;23.55;13.82;;;-1.50;99.30;;;;;;5021251;28;20061;-76
2022/01/31 02:00:50;;;;;;;22.88;14.60;;;-1.50;99.20;;;;;;5014787;28;20467;-75
2022/01/31 02:03:17;;;;;;;21.80;13.00;;;-1.50;99.00;;;;;;5014329;28;20087;-78
2022/01/31 02:05:43;;;;;;;18.35;13.27;;;-1.50;99.00;;;;;;4996857;28;20056;-76
2022/01/31 02:08:13;;;;;;;23.42;13.10;;;-1.40;99.20;;;;;;5014319;28;20114;-76
2022/01/31 02:10:39;;;;;;;25.60;14.15;;;-1.50;99.20;;;;;;5013818;28;20049;-77
2022/01/31 02:13:08;;;;;;;20.20;13.43;;;-1.50;99.30;;;;;;5014191;28;20029;-76
2022/01/31 02:15:34;;;;;;;28.42;14.32;;;-1.50;99.50;;;;;;5014475;28;20387;-76
2022/01/31 02:18:00;;;;;;;24.23;13.20;;;-1.50;99.60;;;;;;5014544;28;20121;-77
2022/01/31 02:20:26;;;;;;;26.73;15.23;;;-1.50;99.60;;;;;;5014195;28;20522;-76
2022/01/31 02:22:53;;;;;;;24.92;13.30;;;-1.50;99.50;;;;;;5013936;28;20073;-76
2022/01/31 02:25:19;;;;;;;22.93;14.00;;;-1.50;99.50;;;;;;4996291;28;20030;-77
2022/01/31 02:27:45;;;;;;;28.90;14.70;;;-1.50;99.50;;;;;;5013813;28;20030;-77
2022/01/31 02:30:16;;;;;;;25.08;12.90;;;-1.50;99.50;;;;;;5013148;28;20076;-76
2022/01/31 02:32:45;;;;;;;23.15;13.57;;;-1.50;99.60;;;;;;5013984;28;20025;-76
2022/01/31 02:35:11;;;;;;;25.38;13.27;;;-1.50;99.70;;;;;;5013881;28;20021;-76
2022/01/31 02:37:38;;;;;;;28.73;14.07;;;-1.40;99.80;;;;;;5013607;28;20018;-76
2022/01/31 02:40:04;;;;;;;22.02;13.90;;;-1.50;99.60;;;;;;5013985;28;20462;-76
2022/01/31 02:42:30;;;;;;;25.20;13.45;;;-1.50;99.50;;;;;;5014111;28;20041;-76
2022/01/31 02:44:56;;;;;;;23.65;14.02;;;-1.40;99.40;;;;;;5024465;28;20017;-75
2022/01/31 02:47:27;;;;;;;22.52;13.50;;;-1.40;99.40;;;;;;5025226;28;20052;-76
2022/01/31 02:49:58;;;;;;;23.60;13.40;;;-1.40;99.50;;;;;;5021252;28;20045;-75
2022/01/31 02:52:26;;;;;;;25.55;14.70;;;-1.40;99.50;;;;;;5014885;28;20026;-76
2022/01/31 02:54:52;;;;;;;25.80;14.70;;;-1.40;99.30;;;;;;5013711;28;20024;-76
2022/01/31 02:57:17;;;;;;;22.80;15.63;;;-1.40;99.20;;;;;;5013467;28;20022;-76
2022/01/31 02:59:43;;;;;;;22.90;12.90;;;-1.40;99.20;;;;;;5012643;28;20037;-76
2022/01/31 03:02:09;;;;;;;26.60;15.18;;;-1.40;99.00;;;;;;5009214;28;20041;-76
2022/01/31 03:04:35;;;;;;;26.63;14.65;;;-1.30;99.00;;;;;;5034077;28;20094;-76
2022/01/31 03:07:00;;;;;;;22.30;13.75;;;-1.30;99.00;;;;;;5033315;28;20483;-76
2022/01/31 03:09:26;;;;;;;28.50;14.93;;;-1.30;99.20;;;;;;5032823;28;20111;-76
2022/01/31 03:11:52;;;;;;;29.88;15.38;;;-1.30;98.90;;;;;;5032882;28;20542;-77
2022/01/31 03:14:19;;;;;;;26.65;14.35;;;-1.20;98.80;;;;;;5032897;28;20335;-78
2022/01/31 03:16:47;;;;;;;22.67;14.77;;;-1.20;98.80;;;;;;5033100;28;20494;-75
2022/01/31 03:19:14;;;;;;;23.98;14.85;;;-1.20;98.90;;;;;;5021245;28;20050;-77
2022/01/31 03:21:41;;;;;;;24.30;13.40;;;-1.20;99.00;;;;;;5013029;28;20155;-77
2022/01/31 03:24:07;;;;;;;25.27;14.77;;;-1.20;99.00;;;;;;5013222;28;20076;-76
2022/01/31 03:26:33;;;;;;;24.80;15.13;;;-1.20;99.00;;;;;;5012750;28;20413;-78
2022/01/31 03:28:59;;;;;;;30.58;16.08;;;-1.20;99.00;;;;;;5012767;28;20062;-76
2022/01/31 03:31:25;;;;;;;23.85;13.85;;;-1.20;99.10;;;;;;5013165;28;20403;-77
2022/01/31 03:33:52;;;;;;;26.52;14.82;;;-1.20;98.90;;;;;;5017679;28;20033;-76
2022/01/31 03:36:18;;;;;;;;;;;-1.20;98.80;;;;;;5048157;28;20029;-76
2022/01/31 03:38:44;;;;;;;25.60;13.60;;;-1.20;98.80;;;;;;5030245;28;20014;-76
2022/01/31 03:41:15;;;;;;;24.70;14.77;;;-1.30;98.90;;;;;;5035522;28;20021;-77
2022/01/31 03:43:41;;;;;;;28.15;15.45;;;-1.20;98.90;;;;;;5033062;28;20034;-77
2022/01/31 03:46:08;;;;;;;28.40;15.32;;;-1.30;98.90;;;;;;5014698;28;20471;-77
2022/01/31 03:48:34;;;;;;;24.25;15.02;;;-1.20;98.90;;;;;;5012554;28;20025;-79
2022/01/31 03:51:02;;;;;;;34.00;15.80;;;-1.30;98.90;;;;;;5012653;28;20486;-77
2022/01/31 03:53:29;;;;;;;28.23;15.18;;;-1.20;99.10;;;;;;5012184;28;20431;-76
2022/01/31 03:55:54;;;;;;;22.05;14.57;;;-1.20;99.20;;;;;;5012820;28;20022;-76
2022/01/31 03:58:20;;;;;;;34.35;17.33;;;-1.20;99.30;;;;;;5012977;28;20036;-76
2022/01/31 04:00:47;;;;;;;31.15;15.00;;;-1.20;99.40;;;;;;5014190;28;20033;-76
2022/01/31 04:03:13;;;;;;;24.97;13.87;;;-1.20;99.40;;;;;;5013071;28;20088;-78
2022/01/31 04:05:39;;;;;;;30.48;17.17;;;-1.20;99.40;;;;;;5012361;28;20060;-78
2022/01/31 04:08:05;;;;;;;27.52;16.38;;;-1.20;99.50;;;;;;5012368;28;20030;-77
2022/01/31 04:10:31;;;;;;;29.13;16.40;;;-1.20;99.50;;;;;;5020914;28;20045;-78
2022/01/31 04:12:57;;;;;;;33.83;17.02;;;-1.20;99.40;;;;;;5032049;28;20071;-77
2022/01/31 04:15:23;;;;;;;23.65;16.20;;;-1.20;99.40;;;;;;5031948;28;20546;-78
2022/01/31 04:17:49;;;;;;;32.08;15.75;;;-1.20;99.70;;;;;;5032381;28;20032;-78
2022/01/31 04:20:16;;;;;;;26.60;15.40;;;-1.20;99.30;;;;;;5031996;28;20052;-76
2022/01/31 04:22:50;;;;;;;28.50;15.18;;;-1.20;99.70;;;;;;5032370;28;20520;-78
2022/01/31 04:25:29;;;;;;;30.10;15.45;;;-1.20;99.60;;;;;;5014588;28;20510;-78
2022/01/31 04:28:04;;;;;;;27.30;15.88;;;-1.20;99.80;;;;;;5016176;28;20386;-79
2022/01/31 04:30:38;;;;;;;29.02;15.68;;;-1.20;99.90;;;;;;5011733;28;20155;-80
2022/01/31 04:33:05;;;;;;;29.17;16.27;;;-1.20;99.90;;;;;;5032023;28;20055;-77
2022/01/31 04:35:30;;;;;;;22.75;14.88;;;-1.20;99.90;;;;;;5032025;28;20397;-77
2022/01/31 04:37:58;;;;;;;27.00;16.52;;;-1.20;99.90;;;;;;5031872;28;20029;-78
2022/01/31 04:40:24;;;;;;;26.27;13.48;;;-1.20;99.90;;;;;;5032023;28;20029;-78
2022/01/31 04:42:50;;;;;;;25.30;15.77;;;-1.20;99.90;;;;;;5010579;28;20402;-77
2022/01/31 04:45:16;;;;;;;27.48;15.45;;;-1.20;99.90;;;;;;5002514;28;20434;-79
2022/01/31 04:47:41;;;;;;;27.45;15.45;;;-1.20;99.90;;;;;;5030442;28;20057;-78
2022/01/31 04:50:08;;;;;;;26.77;15.93;;;-1.20;99.90;;;;;;5031705;28;20513;-77
2022/01/31 04:52:34;;;;;;;32.87;18.13;;;-1.20;99.90;;;;;;5031710;28;20505;-77
2022/01/31 04:54:59;;;;;;;24.92;15.07;;;-1.20;99.90;;;;;;5031690;28;20026;-78
2022/01/31 04:57:25;;;;;;;28.80;14.57;;;-1.20;99.90;;;;;;5031522;28;20521;-78
2022/01/31 04:59:52;;;;;;;26.48;14.43;;;-1.20;99.90;;;;;;5030178;28;20382;-76
2022/01/31 05:02:17;;;;;;;24.98;16.40;;;-1.20;99.90;;;;;;5027022;28;20041;-77
2022/01/31 05:04:43;;;;;;;27.48;15.15;;;-1.20;99.80;;;;;;5011708;28;20038;-77
2022/01/31 05:07:09;;;;;;;24.92;14.77;;;-1.10;99.70;;;;;;5011603;28;20068;-77
2022/01/31 05:09:35;;;;;;;24.98;15.88;;;-1.10;99.70;;;;;;5011588;28;20025;-77
2022/01/31 05:12:01;;;;;;;23.33;13.98;;;-1.10;99.70;;;;;;5010291;28;20112;-76
2022/01/31 05:14:27;;;;;;;25.63;15.25;;;-1.10;99.70;;;;;;5011744;28;20033;-75
2022/01/31 05:16:52;;;;;;;29.23;16.23;;;-1.10;99.80;;;;;;5011975;28;20026;-78
2022/01/31 05:19:18;;;;;;;26.58;14.05;;;-1.10;99.80;;;;;;4993480;28;20026;-78
2022/01/31 05:21:44;;;;;;;26.85;14.98;;;-1.10;99.80;;;;;;5031767;28;20510;-77
2022/01/31 05:24:10;;;;;;;25.90;15.27;;;-1.10;99.80;;;;;;5036764;28;20104;-77
2022/01/31 05:26:36;;;;;;;23.17;13.55;;;-1.10;99.80;;;;;;5037777;28;20022;-79
2022/01/31 05:29:02;;;;;;;23.55;14.77;;;-1.10;99.80;;;;;;5036188;28;20018;-78
2022/01/31 05:31:28;;;;;;;21.92;14.50;;;-1.10;99.70;;;;;;5023133;28;20025;-77
2022/01/31 05:33:54;;;;;;;29.48;14.98;;;-1.10;99.70;;;;;;5015333;28;20505;-78
2022/01/31 05:36:21;;;;;;;28.30;14.90;;;-1.00;99.80;;;;;;5014545;28;20033;-78
2022/01/31 05:38:47;;;;;;;28.98;15.02;;;-1.00;99.80;;;;;;5015244;28;20033;-78
2022/01/31 05:41:18;;;;;;;26.75;14.68;;;-1.10;99.80;;;;;;5014958;28;20022;-77
2022/01/31 05:43:45;;;;;;;27.85;16.77;;;-1.10;99.80;;;;;;5022584;28;20438;-77
2022/01/31 05:46:11;;;;;;;23.40;14.98;;;-1.00;99.80;;;;;;5027802;28;20048;-76
2022/01/31 05:48:37;;;;;;;30.30;16.08;;;-1.00;99.60;;;;;;5017663;28;20426;-76
2022/01/31 05:51:03;;;;;;;26.52;15.52;;;-1.00;99.60;;;;;;5016259;28;20037;-77
2022/01/31 05:53:32;;;;;;;24.67;15.18;;;-1.10;99.60;;;;;;5015207;28;20033;-76
2022/01/31 05:55:58;;;;;;;26.30;15.52;;;-1.00;99.70;;;;;;5014685;28;20634;-77
2022/01/31 05:58:24;;;;;;;26.13;16.02;;;-1.00;99.70;;;;;;5014796;28;20032;-77
2022/01/31 06:00:50;;;;;;;24.45;15.25;;;-1.00;99.60;;;;;;5016032;28;20022;-76
2022/01/31 06:03:16;;;;;;;34.60;15.77;;;-1.00;99.60;;;;;;5016377;28;20464;-77
2022/01/31 06:05:42;;;;;;;28.77;17.65;;;-1.00;99.80;;;;;;5015237;28;20087;-78
2022/01/31 06:08:07;;;;;;;23.33;15.85;;;-1.00;99.90;;;;;;5016105;28;20034;-77
2022/01/31 06:10:40;;;;;;;26.98;15.30;;;-1.00;99.80;;;;;;5015563;28;20042;-78
2022/01/31 06:13:06;;;;;;;29.08;16.65;;;-1.00;99.90;;;;;;5015141;28;20045;-77
2022/01/31 06:15:32;;;;;;;27.40;16.80;;;-1.00;99.90;;;;;;5014597;28;20026;-78
2022/01/31 06:17:57;;;;;;;33.00;19.58;;;-1.00;99.90;;;;;;4996517;28;20061;-78
2022/01/31 06:20:23;;;;;;;30.42;18.70;;;-1.00;99.90;;;;;;5013737;28;20145;-75
2022/01/31 06:22:50;;;;;;;28.98;16.05;;;-1.00;99.90;;;;;;5013378;28;20034;-76
2022/01/31 06:25:17;;;;;;;30.17;18.25;;;-1.00;99.90;;;;;;5014167;28;20018;-77
2022/01/31 06:27:43;;;;;;;31.08;17.80;;;-1.00;99.90;;;;;;5013821;28;20049;-78
2022/01/31 06:30:09;;;;;;;34.03;18.65;;;-0.90;99.90;;;;;;5013721;28;20042;-76
2022/01/31 06:32:36;;;;;;;24.63;17.10;;;-0.90;99.90;;;;;;4996162;28;20025;-79
2022/01/31 06:35:02;;;;;;;24.80;17.40;;;-0.90;99.80;;;;;;5013669;28;20029;-77
2022/01/31 06:37:30;;;;;;;31.38;18.13;;;-0.80;99.90;;;;;;4995214;28;20136;-77
2022/01/31 06:39:56;;;;;;;28.02;17.60;;;-0.80;99.90;;;;;;5013677;28;20026;-80
2022/01/31 06:42:22;;;;;;;32.88;19.85;;;-0.80;99.70;;;;;;4995780;28;20518;-76
2022/01/31 06:44:48;;;;;;;35.92;19.05;;;-0.80;99.70;;;;;;4995898;28;20034;-77
2022/01/31 06:47:18;;;;;;;35.53;17.90;;;-0.80;99.70;;;;;;5013518;28;20107;-78
2022/01/31 06:49:43;;;;;;;30.98;19.98;;;-0.70;99.70;;;;;;5013382;28;20103;-79
2022/01/31 06:52:09;;;;;;;35.08;20.50;;;-0.70;99.80;;;;;;5013561;28;20061;-76
2022/01/31 06:54:35;;;;;;;26.63;18.70;;;-0.70;99.90;;;;;;5013253;28;20415;-78
2022/01/31 06:57:01;;;;;;;33.55;18.60;;;-0.60;99.90;;;;;;5013373;28;20088;-78
2022/01/31 06:59:27;;;;;;;26.55;18.85;;;-0.60;99.80;;;;;;5013287;28;20100;-77
2022/01/31 07:01:53;;;;;;;32.38;17.60;;;-0.60;99.70;;;;;;5013020;28;20030;-77
2022/01/31 07:04:19;;;;;;;32.13;20.05;;;-0.60;99.70;;;;;;5013205;28;20025;-78
2022/01/31 07:06:44;;;;;;;29.15;19.02;;;-0.50;99.60;;;;;;5013204;28;20025;-77
2022/01/31 07:09:11;;;;;;;32.13;19.33;;;-0.50;99.40;;;;;;5012500;28;20087;-78
2022/01/31 07:11:40;;;;;;;36.58;19.98;;;-0.50;99.50;;;;;;5013066;28;20025;-80
2022/01/31 07:14:13;;;;;;;28.88;18.73;;;-0.50;99.50;;;;;;5012866;28;20021;-79
2022/01/31 07:16:39;;;;;;;33.00;19.77;;;-0.40;99.60;;;;;;5012825;28;20058;-80
2022/01/31 07:19:08;;;;;;;35.65;19.60;;;-0.40;99.50;;;;;;5013083;28;20029;-76
2022/01/31 07:21:39;;;;;;;33.53;19.05;;;-0.40;99.90;;;;;;5018655;28;20105;-83
2022/01/31 07:26:44;;;;;;;40.08;22.63;;;-0.40;99.80;;;;;;5021152;28;20375;-78
2022/01/31 07:29:10;;;;;;;35.70;22.02;;;-0.40;99.70;;;;;;5012461;28;20026;-80
2022/01/31 07:31:36;;;;;;;31.80;19.02;;;-0.30;99.80;;;;;;5012902;28;20030;-80
2022/01/31 07:34:02;;;;;;;39.60;20.90;;;-0.30;99.90;;;;;;5012653;28;20165;-79
2022/01/31 07:36:29;;;;;;;36.97;19.10;;;-0.30;99.80;;;;;;5012762;28;20022;-79
2022/01/31 07:38:55;;;;;;;39.17;21.50;;;-0.30;99.90;;;;;;5016297;28;20029;-81
2022/01/31 07:41:23;;;;;;;42.80;22.73;;;-0.30;99.90;;;;;;5032758;28;20581;-77
2022/01/31 07:43:50;;;;;;;33.45;20.42;;;-0.30;99.90;;;;;;5031890;28;20037;-78
2022/01/31 07:46:16;;;;;;;36.22;21.55;;;-0.20;99.90;;;;;;5033456;28;20025;-77
2022/01/31 07:48:42;;;;;;;44.30;23.20;;;-0.20;99.90;;;;;;5017484;28;20128;-78
2022/01/31 07:51:10;;;;;;;41.50;21.67;;;-0.20;99.90;;;;;;5023619;28;20053;-78
2022/01/31 07:53:38;;;;;;;41.72;22.75;;;-0.20;99.90;;;;;;5032626;28;20029;-78
2022/01/31 07:56:07;;;;;;;36.42;21.05;;;-0.10;99.90;;;;;;5026733;28;20037;-78
2022/01/31 07:58:37;;;;;;;39.53;22.52;;;-0.10;99.80;;;;;;5016844;28;20418;-79
2022/01/31 08:01:04;;;;;;;41.47;22.10;;;-0.10;99.70;;;;;;5020075;28;20102;-78
2022/01/31 08:03:31;;;;;;;44.08;24.23;;;-0.10;99.70;;;;;;5027199;28;20098;-78
2022/01/31 08:05:57;;;;;;;45.67;24.73;;;-0.10;99.70;;;;;;5014541;28;20393;-79
2022/01/31 08:08:24;;;;;;;45.22;23.90;;;-0.10;99.70;;;;;;5032371;28;20601;-79
2022/01/31 08:10:51;;;;;;;41.05;22.65;;;-0.10;99.60;;;;;;5032370;28;20155;-80
2022/01/31 08:13:17;;;;;;;46.08;26.92;;;-0.10;99.60;;;;;;5031822;28;20057;-78
2022/01/31 08:15:48;;;;;;;44.42;24.23;;;-0.10;99.50;;;;;;5032051;28;20053;-80
2022/01/31 08:18:15;;;;;;;35.38;20.85;;;0.00;99.50;;;;;;5030520;28;20398;-80
2022/01/31 08:20:41;;;;;;;43.15;22.17;;;0.00;99.90;;;;;;5022390;28;20462;-79
2022/01/31 08:23:10;;;;;;;38.13;21.30;;;0.00;99.60;;;;;;5012419;28;20038;-79
2022/01/31 08:25:37;;;;;;;34.33;20.55;;;0.00;99.60;;;;;;5012387;28;20080;-80
2022/01/31 08:28:08;;;;;;;38.30;21.38;;;0.00;99.70;;;;;;5012511;28;20049;-80
2022/01/31 08:30:43;;;;;;;40.30;21.23;;;0.00;99.80;;;;;;4994466;28;20058;-79
2022/01/31 08:33:32;;;;;;;42.35;20.55;;;0.00;99.70;;;;;;5012513;28;20099;-79
2022/01/31 08:35:58;;;;;;;35.20;20.33;;;0.10;99.80;;;;;;5011693;28;20040;-80
2022/01/31 08:38:34;;;;;;;42.03;23.58;;;0.10;99.90;;;;;;5003621;28;20073;-79
2022/01/31 08:41:00;;;;;;;43.28;22.85;;;0.10;99.80;;;;;;5011893;28;20052;-79
2022/01/31 08:43:27;;;;;;;35.95;23.00;;;0.10;99.70;;;;;;5011713;28;20034;-78
2022/01/31 08:45:56;;;;;;;40.78;22.55;;;0.10;99.60;;;;;;5012252;28;20109;-80
2022/01/31 08:48:24;;;;;;;48.47;25.50;;;0.10;99.60;;;;;;5011900;28;20025;-79
2022/01/31 08:50:50;;;;;;;;;;;0.10;99.70;;;;;;5012188;28;20506;-80
2022/01/31 08:53:16;;;;;;;41.05;20.88;;;0.10;99.60;;;;;;4994243;28;20004;-79
2022/01/31 08:55:49;;;;;;;39.80;20.48;;;0.10;99.60;;;;;;5011801;28;20475;-79
2022/01/31 08:58:16;;;;;;;44.03;23.60;;;0.10;99.80;;;;;;5014904;28;20037;-78
2022/01/31 09:00:48;;;;;;;40.97;20.73;;;0.10;99.80;;;;;;5015018;28;20049;-80
2022/01/31 09:05:40;;;;;;;41.40;24.08;;;0.10;99.90;;;;;;5015963;28;20101;-79
2022/01/31 09:08:06;;;;;;;44.50;23.63;;;0.10;99.80;;;;;;5015731;28;20359;-79
2022/01/31 09:10:32;;;;;;;39.20;22.35;;;0.10;99.90;;;;;;5016512;28;20029;-78
2022/01/31 09:12:59;;;;;;;42.55;22.88;;;0.20;99.90;;;;;;5015157;28;20040;-79
2022/01/31 09:15:24;;;;;;;40.88;23.20;;;0.10;99.90;;;;;;5015465;28;20104;-81
2022/01/31 09:17:50;;;;;;;48.70;24.08;;;0.10;99.90;;;;;;5015021;28;20102;-79
2022/01/31 09:20:17;;;;;;;43.33;22.65;;;0.10;99.90;;;;;;5015465;28;20021;-79
2022/01/31 09:22:43;;;;;;;49.07;24.70;;;0.10;99.90;;;;;;5015489;28;20026;-82
2022/01/31 09:25:14;;;;;;;41.55;23.40;;;0.10;99.90;;;;;;5015076;28;20108;-78
2022/01/31 09:27:40;;;;;;;48.80;23.17;;;0.10;99.90;;;;;;5015249;28;20076;-80
2022/01/31 09:30:09;;;;;;;48.03;23.83;;;0.10;99.90;;;;;;5015514;28;20045;-78
2022/01/31 09:32:35;;;;;;;47.83;24.48;;;0.10;99.90;;;;;;5015197;28;20025;-80
2022/01/31 09:35:02;;;;;;;47.75;24.83;;;0.10;99.90;;;;;;5014924;28;20033;-78
2022/01/31 09:37:28;;;;;;;52.03;28.40;;;0.20;99.90;;;;;;5014559;28;20030;-79
2022/01/31 09:39:54;;;;;;;52.40;25.75;;;0.20;99.90;;;;;;5014613;28;20822;-80
2022/01/31 09:42:51;;;;;;;57.88;25.73;;;0.20;99.90;;;;;;5014876;28;20076;-81
2022/01/31 09:45:22;;;;;;;54.17;26.52;;;0.20;99.90;;;;;;5013497;28;20108;-81
2022/01/31 09:50:23;;;;;;;51.00;26.05;;;0.20;99.90;;;;;;5015337;28;20472;-79
2022/01/31 09:52:49;;;;;;;48.33;24.77;;;0.20;99.90;;;;;;5018619;28;20025;-78
2022/01/31 09:55:15;;;;;;;48.47;26.27;;;0.20;99.80;;;;;;5019862;28;20018;-80
2022/01/31 09:57:41;;;;;;;39.33;22.63;;;0.20;99.70;;;;;;5001293;28;20053;-79
2022/01/31 10:00:08;;;;;;;45.92;24.58;;;0.20;99.80;;;;;;5021254;28;20247;-81
2022/01/31 10:02:33;;;;;;;54.27;25.67;;;0.20;99.90;;;;;;5031584;28;20102;-79
2022/01/31 10:04:59;;;;;;;52.08;27.00;;;0.20;99.90;;;;;;5025019;28;20310;-80
2022/01/31 10:07:44;;;;;;;53.92;25.85;;;0.20;99.90;;;;;;5018035;28;20033;-79
2022/01/31 10:10:22;;;;;;;52.83;25.50;;;0.20;99.90;;;;;;5016339;28;20030;-79
2022/01/31 10:18:10;;;;;;;57.25;26.45;;;0.20;99.90;;;;;;5014650;28;20160;-82
2022/01/31 10:20:36;;;;;;;48.63;25.50;;;0.20;99.90;;;;;;4996629;28;20061;-78
2022/01/31 10:23:15;;;;;;;44.58;24.63;;;0.20;99.90;;;;;;5012823;28;20042;-79
2022/01/31 10:25:43;;;;;;;53.30;26.33;;;0.30;99.90;;;;;;5015403;28;20030;-82
2022/01/31 10:28:20;;;;;;;57.42;25.73;;;0.30;99.90;;;;;;5016221;28;20403;-79
2022/01/31 10:30:53;;;;;;;50.80;23.77;;;0.30;99.90;;;;;;5035648;28;20050;-79
2022/01/31 10:33:21;;;;;;;53.33;27.27;;;0.30;99.90;;;;;;5045840;28;20393;-80
2022/01/31 10:35:47;;;;;;;56.85;28.48;;;0.30;99.90;;;;;;5033605;28;20073;-79
2022/01/31 10:38:18;;;;;;;61.05;28.25;;;0.30;99.90;;;;;;5019814;28;20452;-79
2022/01/31 10:52:24;;;;;;;51.95;27.30;;;0.20;99.90;;;;;;5000440;28;20033;-80
2022/01/31 10:54:55;;;;;;;57.75;28.80;;;0.30;99.90;;;;;;5013126;28;20014;-80
2022/01/31 10:57:36;;;;;;;57.45;30.20;;;0.20;99.90;;;;;;4996060;28;20117;-80
2022/01/31 11:00:05;;;;;;;62.67;28.88;;;0.30;99.90;;;;;;5013461;28;20490;-81
2022/01/31 11:02:53;;;;;;;57.28;27.70;;;0.30;99.90;;;;;;5012762;28;20546;-81
2022/01/31 11:05:23;;;;;;;51.25;26.13;;;0.30;99.90;;;;;;5013181;28;20022;-79
2022/01/31 11:07:59;;;;;;;;;;;;;;;;;;;;;
2022/01/31 11:10:29;;;;;;;53.73;29.90;;;0.30;99.90;;;;;;5013246;28;20032;-79
2022/01/31 11:12:55;;;;;;;54.53;29.17;;;0.30;99.90;;;;;;4995326;28;20523;-79
2022/01/31 11:15:21;;;;;;;54.13;28.17;;;0.30;99.90;;;;;;4995453;28;20030;-81
2022/01/31 11:17:55;;;;;;;52.33;29.35;;;0.30;99.90;;;;;;5012411;28;20044;-80
2022/01/31 11:20:21;;;;;;;63.28;31.20;;;0.30;99.90;;;;;;4994198;28;20399;-80
2022/01/31 11:22:56;;;;;;;54.70;29.70;;;0.30;99.90;;;;;;5013101;28;20037;-80
2022/01/31 11:25:26;;;;;;;65.57;31.45;;;0.40;99.90;;;;;;5013007;28;20020;-79
2022/01/31 11:28:08;;;;;;;59.50;30.23;;;0.40;99.90;;;;;;5013778;28;20109;-79
2022/01/31 11:30:42;;;;;;;57.78;30.60;;;0.40;99.90;;;;;;5027739;28;20046;-79
2022/01/31 11:33:11;;;;;;;59.38;29.90;;;0.40;99.90;;;;;;5035913;28;20443;-80
2022/01/31 11:36:02;;;;;;;53.90;29.92;;;0.40;99.90;;;;;;4997874;28;20030;-81
2022/01/31 11:38:29;;;;;;;54.67;30.45;;;0.40;99.90;;;;;;5012313;28;20021;-79
2022/01/31 11:41:11;;;;;;;67.13;30.02;;;0.40;99.90;;;;;;5012861;28;20033;-79
2022/01/31 11:43:37;;;;;;;58.35;29.63;;;0.40;99.90;;;;;;5012887;28;20430;-81
2022/01/31 11:46:14;;;;;;;46.35;29.23;;;0.40;99.90;;;;;;5012694;28;20025;-80
2022/01/31 11:48:53;;;;;;;54.15;29.45;;;0.40;99.90;;;;;;5021720;28;20025;-80
2022/01/31 11:51:22;;;;;;;55.78;29.35;;;0.40;99.90;;;;;;5032571;28;20040;-80
2022/01/31 11:55:12;;;;;;;58.65;31.60;;;0.40;99.90;;;;;;5032027;28;20159;-78
2022/01/31 11:57:15;;;;;;;55.08;29.20;;;0.40;99.90;;;;;;4988317;28;20456;-79
2022/01/31 11:59:42;;;;;;;49.75;28.30;;;0.40;99.90;;;;;;5037419;28;20087;-79
2022/01/31 12:02:19;;;;;;;57.37;29.70;;;0.40;99.90;;;;;;5037386;28;20029;-80
2022/01/31 12:04:50;;;;;;;53.60;30.90;;;0.40;99.90;;;;;;5004142;28;20041;-80
2022/01/31 12:07:38;;;;;;;51.80;29.70;;;0.40;99.90;;;;;;5017716;28;20025;-79
2022/01/31 12:10:07;;;;;;;45.33;26.90;;;0.40;99.90;;;;;;5017975;28;20060;-79
2022/01/31 12:12:56;;;;;;;57.50;30.65;;;0.40;99.90;;;;;;5001062;28;20372;-81
2022/01/31 12:15:34;;;;;;;53.88;31.13;;;0.40;99.90;;;;;;4995458;28;20061;-77
2022/01/31 12:23:55;;;;;;;48.30;28.48;;;0.40;99.90;;;;;;5012296;28;20391;-78
2022/01/31 12:26:46;;;;;;;56.55;28.92;;;0.40;99.90;;;;;;5014872;28;20363;-80
2022/01/31 12:29:15;;;;;;;51.13;29.15;;;0.40;99.90;;;;;;5001335;28;20071;-77
2022/01/31 12:32:10;;;;;;;47.55;26.95;;;0.40;99.90;;;;;;5014798;28;20501;-77
2022/01/31 12:34:38;;;;;;;46.22;27.08;;;0.40;99.90;;;;;;5014708;28;20096;-77
2022/01/31 12:37:23;;;;;;;49.80;28.63;;;0.40;99.90;;;;;;5015747;28;20049;-78
2022/01/31 12:40:01;;;;;;;43.13;26.38;;;0.40;99.90;;;;;;5016546;28;20072;-79
2022/01/31 12:42:54;;;;;;;49.42;30.15;;;0.40;99.90;;;;;;5016025;28;20026;-80
2022/01/31 12:45:22;;;;;;;53.60;26.42;;;0.40;99.90;;;;;;5015580;28;20049;-82
2022/01/31 12:48:06;;;;;;;;;;;0.40;99.90;;;;;;5016360;28;20037;-78
2022/01/31 12:50:34;;;;;;;50.95;27.38;;;0.40;99.90;;;;;;5015512;28;20294;-79
2022/01/31 12:53:05;;;;;;;50.35;27.05;;;0.40;99.90;;;;;;5015804;28;20018;-78
2022/01/31 12:55:32;;;;;;;53.03;28.63;;;0.40;99.90;;;;;;5014986;28;20024;-76
2022/01/31 12:57:58;;;;;;;58.15;28.63;;;0.40;99.90;;;;;;5014286;28;20036;-79
2022/01/31 13:00:41;;;;;;;54.83;26.83;;;0.40;99.90;;;;;;5015294;28;20109;-78
2022/01/31 13:03:11;;;;;;;52.25;28.02;;;0.40;99.90;;;;;;5015848;28;20053;-77
2022/01/31 13:05:38;;;;;;;47.28;26.27;;;0.40;99.90;;;;;;5015948;28;20025;-77
2022/01/31 13:08:18;;;;;;;50.90;27.17;;;0.40;99.90;;;;;;5014135;28;20100;-78
2022/01/31 13:10:47;;;;;;;44.05;28.33;;;0.40;99.90;;;;;;5016823;28;20537;-78
2022/01/31 13:13:13;;;;;;;43.97;25.05;;;0.40;99.90;;;;;;5039247;28;20026;-76